sensor_id;sensor_type;location;lat;lon;timestamp;P1;durP1;ratioP1;P2;durP2;ratioP2
7375;SDS011;3728;42.266;24.944;2024-03-22T00:02:06;7.50;;;6.57;;
7375;SDS011;3728;42.266;24.944;2024-03-22T00:04:35;9.43;;;6.17;;
7375;SDS011;3728;42.266;24.944;2024-03-22T00:07:03;9.77;;;6.37;;
7375;SDS011;3728;42.266;24.944;2024-03-22T00:09:29;13.20;;;8.53;;
7375;SDS011;3728;42.266;24.944;2024-03-22T00:11:56;13.57;;;8.03;;
7375;SDS011;3728;42.266;24.944;2024-03-22T00:14:22;7.60;;;6.47;;
7375;SDS011;3728;42.266;24.944;2024-03-22T00:16:48;12.50;;;8.90;;
7375;SDS011;3728;42.266;24.944;2024-03-22T00:19:15;11.50;;;7.63;;
7375;SDS011;3728;42.266;24.944;2024-03-22T00:21:41;10.07;;;6.80;;
7375;SDS011;3728;42.266;24.944;2024-03-22T00:24:07;13.83;;;10.07;;
7375;SDS011;3728;42.266;24.944;2024-03-22T00:26:33;9.73;;;7.17;;
7375;SDS011;3728;42.266;24.944;2024-03-22T00:28:59;12.90;;;7.30;;
7375;SDS011;3728;42.266;24.944;2024-03-22T00:31:25;9.80;;;7.33;;
7375;SDS011;3728;42.266;24.944;2024-03-22T00:33:51;8.53;;;5.80;;
7375;SDS011;3728;42.266;24.944;2024-03-22T00:36:17;8.97;;;6.17;;
7375;SDS011;3728;42.266;24.944;2024-03-22T00:38:44;7.70;;;6.07;;
7375;SDS011;3728;42.266;24.944;2024-03-22T00:41:11;7.30;;;5.97;;
7375;SDS011;3728;42.266;24.944;2024-03-22T00:43:37;6.80;;;5.83;;
7375;SDS011;3728;42.266;24.944;2024-03-22T00:46:03;8.60;;;5.90;;
7375;SDS011;3728;42.266;24.944;2024-03-22T00:48:30;9.17;;;5.40;;
7375;SDS011;3728;42.266;24.944;2024-03-22T00:50:56;8.57;;;5.80;;
7375;SDS011;3728;42.266;24.944;2024-03-22T00:53:22;7.30;;;5.80;;
7375;SDS011;3728;42.266;24.944;2024-03-22T00:55:48;5.83;;;5.20;;
7375;SDS011;3728;42.266;24.944;2024-03-22T00:58:19;9.77;;;6.00;;
7375;SDS011;3728;42.266;24.944;2024-03-22T01:00:46;6.60;;;5.30;;
7375;SDS011;3728;42.266;24.944;2024-03-22T01:03:13;8.57;;;5.60;;
7375;SDS011;3728;42.266;24.944;2024-03-22T01:05:39;6.57;;;5.47;;
7375;SDS011;3728;42.266;24.944;2024-03-22T01:08:07;5.90;;;5.30;;
7375;SDS011;3728;42.266;24.944;2024-03-22T01:10:33;7.37;;;5.87;;
7375;SDS011;3728;42.266;24.944;2024-03-22T01:12:59;8.27;;;5.80;;
7375;SDS011;3728;42.266;24.944;2024-03-22T01:15:26;6.87;;;4.70;;
7375;SDS011;3728;42.266;24.944;2024-03-22T01:17:52;9.63;;;6.97;;
7375;SDS011;3728;42.266;24.944;2024-03-22T01:20:19;8.77;;;6.60;;
7375;SDS011;3728;42.266;24.944;2024-03-22T01:22:45;8.63;;;6.07;;
7375;SDS011;3728;42.266;24.944;2024-03-22T01:25:12;11.30;;;8.00;;
7375;SDS011;3728;42.266;24.944;2024-03-22T01:27:39;11.53;;;6.97;;
7375;SDS011;3728;42.266;24.944;2024-03-22T01:30:05;10.50;;;7.00;;
7375;SDS011;3728;42.266;24.944;2024-03-22T01:32:32;8.60;;;6.87;;
7375;SDS011;3728;42.266;24.944;2024-03-22T01:34:58;11.30;;;7.20;;
7375;SDS011;3728;42.266;24.944;2024-03-22T01:37:24;10.43;;;6.50;;
7375;SDS011;3728;42.266;24.944;2024-03-22T01:39:50;7.90;;;6.00;;
7375;SDS011;3728;42.266;24.944;2024-03-22T01:42:16;6.10;;;5.40;;
7375;SDS011;3728;42.266;24.944;2024-03-22T01:44:42;10.60;;;7.03;;
7375;SDS011;3728;42.266;24.944;2024-03-22T01:47:09;10.90;;;6.23;;
7375;SDS011;3728;42.266;24.944;2024-03-22T01:49:35;9.87;;;6.40;;
7375;SDS011;3728;42.266;24.944;2024-03-22T01:52:01;12.63;;;7.07;;
7375;SDS011;3728;42.266;24.944;2024-03-22T01:54:28;9.03;;;6.07;;
7375;SDS011;3728;42.266;24.944;2024-03-22T01:56:56;8.97;;;6.10;;
7375;SDS011;3728;42.266;24.944;2024-03-22T01:59:22;7.57;;;5.50;;
7375;SDS011;3728;42.266;24.944;2024-03-22T02:01:49;7.30;;;5.50;;
7375;SDS011;3728;42.266;24.944;2024-03-22T02:04:15;10.60;;;6.37;;
7375;SDS011;3728;42.266;24.944;2024-03-22T02:06:41;9.90;;;6.60;;
7375;SDS011;3728;42.266;24.944;2024-03-22T02:09:07;11.63;;;8.17;;
7375;SDS011;3728;42.266;24.944;2024-03-22T02:11:37;9.77;;;7.57;;
7375;SDS011;3728;42.266;24.944;2024-03-22T02:14:04;12.30;;;8.23;;
7375;SDS011;3728;42.266;24.944;2024-03-22T02:16:30;14.00;;;8.57;;
7375;SDS011;3728;42.266;24.944;2024-03-22T02:18:56;16.07;;;8.60;;
7375;SDS011;3728;42.266;24.944;2024-03-22T02:21:23;12.03;;;8.70;;
7375;SDS011;3728;42.266;24.944;2024-03-22T02:23:49;10.33;;;8.03;;
7375;SDS011;3728;42.266;24.944;2024-03-22T02:26:15;11.60;;;9.87;;
7375;SDS011;3728;42.266;24.944;2024-03-22T02:28:41;7.07;;;5.60;;
7375;SDS011;3728;42.266;24.944;2024-03-22T02:31:07;6.83;;;5.53;;
7375;SDS011;3728;42.266;24.944;2024-03-22T02:33:33;7.93;;;6.20;;
7375;SDS011;3728;42.266;24.944;2024-03-22T02:35:59;7.73;;;5.73;;
7375;SDS011;3728;42.266;24.944;2024-03-22T02:38:26;5.97;;;5.37;;
7375;SDS011;3728;42.266;24.944;2024-03-22T02:40:52;8.07;;;6.17;;
7375;SDS011;3728;42.266;24.944;2024-03-22T02:43:19;7.23;;;6.23;;
7375;SDS011;3728;42.266;24.944;2024-03-22T02:45:47;7.73;;;6.57;;
7375;SDS011;3728;42.266;24.944;2024-03-22T02:48:13;13.37;;;6.20;;
7375;SDS011;3728;42.266;24.944;2024-03-22T02:50:40;6.83;;;6.13;;
7375;SDS011;3728;42.266;24.944;2024-03-22T02:53:07;7.77;;;5.90;;
7375;SDS011;3728;42.266;24.944;2024-03-22T02:55:36;10.53;;;8.17;;
7375;SDS011;3728;42.266;24.944;2024-03-22T02:58:04;13.67;;;6.90;;
7375;SDS011;3728;42.266;24.944;2024-03-22T03:00:35;11.30;;;8.17;;
7375;SDS011;3728;42.266;24.944;2024-03-22T03:03:07;18.40;;;12.80;;
7375;SDS011;3728;42.266;24.944;2024-03-22T03:05:33;21.13;;;15.60;;
7375;SDS011;3728;42.266;24.944;2024-03-22T03:08:02;21.27;;;13.53;;
7375;SDS011;3728;42.266;24.944;2024-03-22T03:10:29;20.17;;;13.90;;
7375;SDS011;3728;42.266;24.944;2024-03-22T03:12:55;17.10;;;13.30;;
7375;SDS011;3728;42.266;24.944;2024-03-22T03:15:21;22.37;;;16.47;;
7375;SDS011;3728;42.266;24.944;2024-03-22T03:17:47;22.20;;;14.37;;
7375;SDS011;3728;42.266;24.944;2024-03-22T03:20:14;14.43;;;9.87;;
7375;SDS011;3728;42.266;24.944;2024-03-22T03:22:40;12.13;;;9.43;;
7375;SDS011;3728;42.266;24.944;2024-03-22T03:25:07;13.93;;;9.73;;
7375;SDS011;3728;42.266;24.944;2024-03-22T03:27:34;18.17;;;12.03;;
7375;SDS011;3728;42.266;24.944;2024-03-22T03:30:00;15.63;;;10.37;;
7375;SDS011;3728;42.266;24.944;2024-03-22T03:32:27;14.13;;;9.03;;
7375;SDS011;3728;42.266;24.944;2024-03-22T03:34:53;10.70;;;9.60;;
7375;SDS011;3728;42.266;24.944;2024-03-22T03:37:20;23.27;;;14.40;;
7375;SDS011;3728;42.266;24.944;2024-03-22T03:39:46;19.37;;;13.90;;
7375;SDS011;3728;42.266;24.944;2024-03-22T03:42:12;17.23;;;13.23;;
7375;SDS011;3728;42.266;24.944;2024-03-22T03:44:38;15.80;;;10.00;;
7375;SDS011;3728;42.266;24.944;2024-03-22T03:47:04;12.13;;;8.07;;
7375;SDS011;3728;42.266;24.944;2024-03-22T03:49:31;13.70;;;8.63;;
7375;SDS011;3728;42.266;24.944;2024-03-22T03:51:57;14.43;;;9.27;;
7375;SDS011;3728;42.266;24.944;2024-03-22T03:54:23;10.00;;;8.10;;
7375;SDS011;3728;42.266;24.944;2024-03-22T03:56:49;20.37;;;12.20;;
7375;SDS011;3728;42.266;24.944;2024-03-22T03:59:15;12.03;;;8.80;;
7375;SDS011;3728;42.266;24.944;2024-03-22T04:01:41;14.43;;;8.17;;
7375;SDS011;3728;42.266;24.944;2024-03-22T04:04:08;14.57;;;11.17;;
7375;SDS011;3728;42.266;24.944;2024-03-22T04:06:34;20.00;;;11.90;;
7375;SDS011;3728;42.266;24.944;2024-03-22T04:09:00;17.07;;;9.47;;
7375;SDS011;3728;42.266;24.944;2024-03-22T04:11:28;19.50;;;9.23;;
7375;SDS011;3728;42.266;24.944;2024-03-22T04:13:55;15.03;;;9.10;;
7375;SDS011;3728;42.266;24.944;2024-03-22T04:16:22;18.90;;;11.87;;
7375;SDS011;3728;42.266;24.944;2024-03-22T04:18:48;19.03;;;13.20;;
7375;SDS011;3728;42.266;24.944;2024-03-22T04:21:15;26.33;;;15.27;;
7375;SDS011;3728;42.266;24.944;2024-03-22T04:23:41;26.83;;;16.77;;
7375;SDS011;3728;42.266;24.944;2024-03-22T04:26:07;32.77;;;18.37;;
7375;SDS011;3728;42.266;24.944;2024-03-22T04:28:34;32.87;;;18.27;;
7375;SDS011;3728;42.266;24.944;2024-03-22T04:31:01;30.47;;;17.47;;
7375;SDS011;3728;42.266;24.944;2024-03-22T04:33:34;32.30;;;18.33;;
7375;SDS011;3728;42.266;24.944;2024-03-22T04:36:02;29.40;;;16.60;;
7375;SDS011;3728;42.266;24.944;2024-03-22T04:38:29;26.40;;;15.57;;
7375;SDS011;3728;42.266;24.944;2024-03-22T04:40:56;29.70;;;17.13;;
7375;SDS011;3728;42.266;24.944;2024-03-22T04:43:23;28.43;;;15.83;;
7375;SDS011;3728;42.266;24.944;2024-03-22T04:45:50;30.17;;;16.43;;
7375;SDS011;3728;42.266;24.944;2024-03-22T04:48:17;29.10;;;16.40;;
7375;SDS011;3728;42.266;24.944;2024-03-22T04:50:46;27.87;;;14.73;;
7375;SDS011;3728;42.266;24.944;2024-03-22T04:53:18;25.60;;;13.87;;
7375;SDS011;3728;42.266;24.944;2024-03-22T04:55:48;22.43;;;14.37;;
7375;SDS011;3728;42.266;24.944;2024-03-22T04:58:19;25.63;;;14.90;;
7375;SDS011;3728;42.266;24.944;2024-03-22T05:00:47;27.03;;;14.63;;
7375;SDS011;3728;42.266;24.944;2024-03-22T05:03:15;24.00;;;14.47;;
7375;SDS011;3728;42.266;24.944;2024-03-22T05:05:42;25.70;;;14.80;;
7375;SDS011;3728;42.266;24.944;2024-03-22T05:08:08;27.70;;;14.90;;
7375;SDS011;3728;42.266;24.944;2024-03-22T05:10:35;22.30;;;14.47;;
7375;SDS011;3728;42.266;24.944;2024-03-22T05:13:02;27.97;;;16.23;;
7375;SDS011;3728;42.266;24.944;2024-03-22T05:15:28;34.47;;;19.10;;
7375;SDS011;3728;42.266;24.944;2024-03-22T05:17:57;37.90;;;21.03;;
7375;SDS011;3728;42.266;24.944;2024-03-22T05:20:24;39.13;;;20.77;;
7375;SDS011;3728;42.266;24.944;2024-03-22T05:22:50;33.90;;;18.93;;
7375;SDS011;3728;42.266;24.944;2024-03-22T05:25:17;21.43;;;12.47;;
7375;SDS011;3728;42.266;24.944;2024-03-22T05:27:44;27.43;;;15.93;;
7375;SDS011;3728;42.266;24.944;2024-03-22T05:30:11;18.37;;;12.67;;
7375;SDS011;3728;42.266;24.944;2024-03-22T05:32:38;18.57;;;11.83;;
7375;SDS011;3728;42.266;24.944;2024-03-22T05:35:06;23.47;;;13.23;;
7375;SDS011;3728;42.266;24.944;2024-03-22T05:37:32;22.80;;;13.33;;
7375;SDS011;3728;42.266;24.944;2024-03-22T05:39:59;22.80;;;13.63;;
7375;SDS011;3728;42.266;24.944;2024-03-22T05:42:27;23.57;;;14.33;;
7375;SDS011;3728;42.266;24.944;2024-03-22T05:44:54;23.03;;;13.60;;
7375;SDS011;3728;42.266;24.944;2024-03-22T05:47:21;21.17;;;12.97;;
7375;SDS011;3728;42.266;24.944;2024-03-22T05:49:48;25.07;;;13.70;;
7375;SDS011;3728;42.266;24.944;2024-03-22T05:52:14;23.73;;;13.77;;
7375;SDS011;3728;42.266;24.944;2024-03-22T05:54:41;28.57;;;15.07;;
7375;SDS011;3728;42.266;24.944;2024-03-22T05:57:07;27.93;;;20.07;;
7375;SDS011;3728;42.266;24.944;2024-03-22T05:59:33;31.33;;;19.57;;
7375;SDS011;3728;42.266;24.944;2024-03-22T06:02:00;27.37;;;16.07;;
7375;SDS011;3728;42.266;24.944;2024-03-22T06:04:26;24.47;;;14.17;;
7375;SDS011;3728;42.266;24.944;2024-03-22T06:06:53;25.40;;;16.00;;
7375;SDS011;3728;42.266;24.944;2024-03-22T06:09:19;28.90;;;17.07;;
7375;SDS011;3728;42.266;24.944;2024-03-22T06:12:11;34.37;;;16.90;;
7375;SDS011;3728;42.266;24.944;2024-03-22T06:14:41;24.03;;;15.03;;
7375;SDS011;3728;42.266;24.944;2024-03-22T06:17:12;32.67;;;18.23;;
7375;SDS011;3728;42.266;24.944;2024-03-22T06:19:38;29.10;;;14.97;;
7375;SDS011;3728;42.266;24.944;2024-03-22T06:22:06;21.30;;;14.57;;
7375;SDS011;3728;42.266;24.944;2024-03-22T06:24:32;22.17;;;13.97;;
7375;SDS011;3728;42.266;24.944;2024-03-22T06:26:59;20.73;;;13.73;;
7375;SDS011;3728;42.266;24.944;2024-03-22T06:29:26;22.23;;;13.63;;
7375;SDS011;3728;42.266;24.944;2024-03-22T06:31:53;21.43;;;12.90;;
7375;SDS011;3728;42.266;24.944;2024-03-22T06:34:20;22.50;;;12.77;;
7375;SDS011;3728;42.266;24.944;2024-03-22T06:36:47;20.13;;;12.90;;
7375;SDS011;3728;42.266;24.944;2024-03-22T06:39:13;21.27;;;13.07;;
7375;SDS011;3728;42.266;24.944;2024-03-22T06:41:40;46.97;;;24.20;;
7375;SDS011;3728;42.266;24.944;2024-03-22T06:44:06;38.53;;;19.67;;
7375;SDS011;3728;42.266;24.944;2024-03-22T06:46:35;27.57;;;17.00;;
7375;SDS011;3728;42.266;24.944;2024-03-22T06:49:01;23.00;;;13.90;;
7375;SDS011;3728;42.266;24.944;2024-03-22T06:51:27;53.27;;;24.37;;
7375;SDS011;3728;42.266;24.944;2024-03-22T06:53:53;40.47;;;19.77;;
7375;SDS011;3728;42.266;24.944;2024-03-22T06:56:20;30.73;;;19.17;;
7375;SDS011;3728;42.266;24.944;2024-03-22T06:58:46;24.30;;;16.57;;
7375;SDS011;3728;42.266;24.944;2024-03-22T07:01:12;38.47;;;21.43;;
7375;SDS011;3728;42.266;24.944;2024-03-22T07:03:39;53.90;;;29.43;;
7375;SDS011;3728;42.266;24.944;2024-03-22T07:06:05;51.37;;;27.00;;
7375;SDS011;3728;42.266;24.944;2024-03-22T07:08:33;22.40;;;13.87;;
7375;SDS011;3728;42.266;24.944;2024-03-22T07:10:59;21.80;;;13.97;;
7375;SDS011;3728;42.266;24.944;2024-03-22T07:13:28;32.97;;;19.13;;
7375;SDS011;3728;42.266;24.944;2024-03-22T07:15:54;19.23;;;12.73;;
7375;SDS011;3728;42.266;24.944;2024-03-22T07:18:20;17.37;;;12.50;;
7375;SDS011;3728;42.266;24.944;2024-03-22T07:20:46;31.13;;;18.57;;
7375;SDS011;3728;42.266;24.944;2024-03-22T07:23:13;22.53;;;14.17;;
7375;SDS011;3728;42.266;24.944;2024-03-22T07:25:41;19.87;;;12.60;;
7375;SDS011;3728;42.266;24.944;2024-03-22T07:28:14;15.13;;;10.37;;
7375;SDS011;3728;42.266;24.944;2024-03-22T07:30:44;29.67;;;14.23;;
7375;SDS011;3728;42.266;24.944;2024-03-22T07:33:10;17.33;;;9.67;;
7375;SDS011;3728;42.266;24.944;2024-03-22T07:35:42;20.80;;;12.13;;
7375;SDS011;3728;42.266;24.944;2024-03-22T07:38:08;13.03;;;8.97;;
7375;SDS011;3728;42.266;24.944;2024-03-22T07:40:34;12.90;;;8.37;;
7375;SDS011;3728;42.266;24.944;2024-03-22T07:43:01;14.17;;;8.33;;
7375;SDS011;3728;42.266;24.944;2024-03-22T07:45:32;9.63;;;6.43;;
7375;SDS011;3728;42.266;24.944;2024-03-22T07:48:00;10.30;;;7.50;;
7375;SDS011;3728;42.266;24.944;2024-03-22T07:50:26;72.90;;;12.43;;
7375;SDS011;3728;42.266;24.944;2024-03-22T07:52:52;17.53;;;7.47;;
7375;SDS011;3728;42.266;24.944;2024-03-22T07:55:19;7.40;;;6.57;;
7375;SDS011;3728;42.266;24.944;2024-03-22T07:57:45;11.43;;;6.60;;
7375;SDS011;3728;42.266;24.944;2024-03-22T08:00:11;9.53;;;7.17;;
7375;SDS011;3728;42.266;24.944;2024-03-22T08:02:38;9.47;;;6.87;;
7375;SDS011;3728;42.266;24.944;2024-03-22T08:05:04;9.10;;;6.03;;
7375;SDS011;3728;42.266;24.944;2024-03-22T08:07:32;8.27;;;6.80;;
7375;SDS011;3728;42.266;24.944;2024-03-22T08:09:58;11.83;;;8.33;;
7375;SDS011;3728;42.266;24.944;2024-03-22T08:12:27;7.03;;;6.03;;
7375;SDS011;3728;42.266;24.944;2024-03-22T08:14:54;6.90;;;5.70;;
7375;SDS011;3728;42.266;24.944;2024-03-22T08:17:21;6.97;;;5.93;;
7375;SDS011;3728;42.266;24.944;2024-03-22T08:19:47;5.70;;;5.10;;
7375;SDS011;3728;42.266;24.944;2024-03-22T08:22:13;7.53;;;6.00;;
7375;SDS011;3728;42.266;24.944;2024-03-22T08:24:40;6.87;;;5.97;;
7375;SDS011;3728;42.266;24.944;2024-03-22T08:27:06;8.87;;;6.50;;
7375;SDS011;3728;42.266;24.944;2024-03-22T08:29:32;7.27;;;5.53;;
7375;SDS011;3728;42.266;24.944;2024-03-22T08:31:58;6.73;;;5.83;;
7375;SDS011;3728;42.266;24.944;2024-03-22T08:34:24;7.53;;;5.83;;
7375;SDS011;3728;42.266;24.944;2024-03-22T08:36:50;7.10;;;5.50;;
7375;SDS011;3728;42.266;24.944;2024-03-22T08:39:17;5.83;;;5.30;;
7375;SDS011;3728;42.266;24.944;2024-03-22T08:41:43;10.20;;;5.60;;
7375;SDS011;3728;42.266;24.944;2024-03-22T08:44:10;7.87;;;5.67;;
7375;SDS011;3728;42.266;24.944;2024-03-22T08:46:36;7.70;;;4.90;;
7375;SDS011;3728;42.266;24.944;2024-03-22T08:49:02;7.07;;;4.60;;
7375;SDS011;3728;42.266;24.944;2024-03-22T08:51:29;5.87;;;5.27;;
7375;SDS011;3728;42.266;24.944;2024-03-22T08:53:56;12.60;;;6.27;;
7375;SDS011;3728;42.266;24.944;2024-03-22T08:56:22;5.13;;;4.60;;
7375;SDS011;3728;42.266;24.944;2024-03-22T08:58:51;5.63;;;4.87;;
7375;SDS011;3728;42.266;24.944;2024-03-22T09:01:17;10.27;;;4.53;;
7375;SDS011;3728;42.266;24.944;2024-03-22T09:03:43;11.97;;;5.23;;
7375;SDS011;3728;42.266;24.944;2024-03-22T09:06:12;13.13;;;6.00;;
7375;SDS011;3728;42.266;24.944;2024-03-22T09:08:38;6.53;;;5.10;;
7375;SDS011;3728;42.266;24.944;2024-03-22T09:11:04;8.07;;;5.43;;
7375;SDS011;3728;42.266;24.944;2024-03-22T09:13:31;15.47;;;6.00;;
7375;SDS011;3728;42.266;24.944;2024-03-22T09:15:59;10.50;;;5.30;;
7375;SDS011;3728;42.266;24.944;2024-03-22T09:18:26;25.37;;;18.67;;
7375;SDS011;3728;42.266;24.944;2024-03-22T09:20:53;6.10;;;5.30;;
7375;SDS011;3728;42.266;24.944;2024-03-22T09:23:19;8.50;;;5.83;;
7375;SDS011;3728;42.266;24.944;2024-03-22T09:25:46;5.70;;;5.10;;
7375;SDS011;3728;42.266;24.944;2024-03-22T09:28:15;8.67;;;5.40;;
7375;SDS011;3728;42.266;24.944;2024-03-22T09:30:41;7.27;;;6.17;;
7375;SDS011;3728;42.266;24.944;2024-03-22T09:33:09;5.57;;;4.63;;
7375;SDS011;3728;42.266;24.944;2024-03-22T09:35:35;6.03;;;4.50;;
7375;SDS011;3728;42.266;24.944;2024-03-22T09:38:01;7.97;;;5.27;;
7375;SDS011;3728;42.266;24.944;2024-03-22T09:40:28;6.47;;;5.40;;
7375;SDS011;3728;42.266;24.944;2024-03-22T09:42:54;6.10;;;5.20;;
7375;SDS011;3728;42.266;24.944;2024-03-22T09:45:31;8.40;;;5.27;;
7375;SDS011;3728;42.266;24.944;2024-03-22T09:47:58;6.03;;;5.43;;
7375;SDS011;3728;42.266;24.944;2024-03-22T09:50:25;7.10;;;5.47;;
7375;SDS011;3728;42.266;24.944;2024-03-22T09:52:52;7.50;;;5.50;;
7375;SDS011;3728;42.266;24.944;2024-03-22T09:55:22;8.03;;;5.77;;
7375;SDS011;3728;42.266;24.944;2024-03-22T09:57:49;8.70;;;5.90;;
7375;SDS011;3728;42.266;24.944;2024-03-22T10:00:20;7.47;;;5.80;;
7375;SDS011;3728;42.266;24.944;2024-03-22T10:02:51;10.30;;;5.87;;
7375;SDS011;3728;42.266;24.944;2024-03-22T10:05:19;6.53;;;5.80;;
7375;SDS011;3728;42.266;24.944;2024-03-22T10:07:45;6.70;;;5.80;;
7375;SDS011;3728;42.266;24.944;2024-03-22T10:10:11;25.53;;;7.00;;
7375;SDS011;3728;42.266;24.944;2024-03-22T10:12:39;9.93;;;5.03;;
7375;SDS011;3728;42.266;24.944;2024-03-22T10:15:06;7.40;;;5.67;;
7375;SDS011;3728;42.266;24.944;2024-03-22T10:17:35;7.50;;;4.80;;
7375;SDS011;3728;42.266;24.944;2024-03-22T10:20:01;7.13;;;5.10;;
7375;SDS011;3728;42.266;24.944;2024-03-22T10:22:29;5.97;;;4.83;;
7375;SDS011;3728;42.266;24.944;2024-03-22T10:24:56;7.10;;;4.50;;
7375;SDS011;3728;42.266;24.944;2024-03-22T10:27:29;5.67;;;4.40;;
7375;SDS011;3728;42.266;24.944;2024-03-22T10:29:55;7.53;;;4.30;;
7375;SDS011;3728;42.266;24.944;2024-03-22T10:32:24;15.17;;;4.77;;
7375;SDS011;3728;42.266;24.944;2024-03-22T10:34:53;9.30;;;4.43;;
7375;SDS011;3728;42.266;24.944;2024-03-22T10:37:21;5.27;;;3.60;;
7375;SDS011;3728;42.266;24.944;2024-03-22T10:39:49;6.03;;;3.40;;
7375;SDS011;3728;42.266;24.944;2024-03-22T10:42:19;8.67;;;3.60;;
7375;SDS011;3728;42.266;24.944;2024-03-22T10:44:49;3.70;;;2.90;;
7375;SDS011;3728;42.266;24.944;2024-03-22T10:47:16;5.20;;;2.83;;
7375;SDS011;3728;42.266;24.944;2024-03-22T10:49:48;5.97;;;3.10;;
7375;SDS011;3728;42.266;24.944;2024-03-22T10:52:17;2.63;;;2.03;;
7375;SDS011;3728;42.266;24.944;2024-03-22T10:54:44;2.07;;;1.87;;
7375;SDS011;3728;42.266;24.944;2024-03-22T10:57:13;3.03;;;2.50;;
7375;SDS011;3728;42.266;24.944;2024-03-22T10:59:43;2.03;;;1.80;;
7375;SDS011;3728;42.266;24.944;2024-03-22T11:02:12;5.10;;;2.10;;
7375;SDS011;3728;42.266;24.944;2024-03-22T11:04:38;2.57;;;2.37;;
7375;SDS011;3728;42.266;24.944;2024-03-22T11:07:05;2.90;;;2.60;;
7375;SDS011;3728;42.266;24.944;2024-03-22T11:09:31;4.43;;;2.07;;
7375;SDS011;3728;42.266;24.944;2024-03-22T11:11:57;2.63;;;2.20;;
7375;SDS011;3728;42.266;24.944;2024-03-22T11:14:25;3.40;;;3.10;;
7375;SDS011;3728;42.266;24.944;2024-03-22T11:16:51;6.13;;;5.53;;
7375;SDS011;3728;42.266;24.944;2024-03-22T11:19:20;3.50;;;2.53;;
7375;SDS011;3728;42.266;24.944;2024-03-22T11:21:47;3.97;;;3.10;;
7375;SDS011;3728;42.266;24.944;2024-03-22T11:24:14;2.43;;;2.10;;
7375;SDS011;3728;42.266;24.944;2024-03-22T11:26:41;2.07;;;1.97;;
7375;SDS011;3728;42.266;24.944;2024-03-22T11:29:10;3.30;;;2.10;;
7375;SDS011;3728;42.266;24.944;2024-03-22T11:31:37;3.20;;;2.30;;
7375;SDS011;3728;42.266;24.944;2024-03-22T11:34:04;2.00;;;1.90;;
7375;SDS011;3728;42.266;24.944;2024-03-22T11:36:31;2.40;;;2.20;;
7375;SDS011;3728;42.266;24.944;2024-03-22T11:38:57;2.43;;;2.23;;
7375;SDS011;3728;42.266;24.944;2024-03-22T11:41:27;2.60;;;2.40;;
7375;SDS011;3728;42.266;24.944;2024-03-22T11:43:57;2.30;;;2.10;;
7375;SDS011;3728;42.266;24.944;2024-03-22T11:46:25;2.77;;;2.57;;
7375;SDS011;3728;42.266;24.944;2024-03-22T11:48:53;2.60;;;2.40;;
7375;SDS011;3728;42.266;24.944;2024-03-22T11:51:20;4.57;;;2.50;;
7375;SDS011;3728;42.266;24.944;2024-03-22T11:53:55;2.60;;;2.30;;
7375;SDS011;3728;42.266;24.944;2024-03-22T11:56:22;2.80;;;2.60;;
7375;SDS011;3728;42.266;24.944;2024-03-22T11:58:57;2.60;;;2.40;;
7375;SDS011;3728;42.266;24.944;2024-03-22T12:01:26;3.57;;;2.00;;
7375;SDS011;3728;42.266;24.944;2024-03-22T12:03:53;2.33;;;2.10;;
7375;SDS011;3728;42.266;24.944;2024-03-22T12:06:22;2.10;;;2.00;;
7375;SDS011;3728;42.266;24.944;2024-03-22T12:08:49;2.20;;;2.00;;
7375;SDS011;3728;42.266;24.944;2024-03-22T12:11:15;2.67;;;2.47;;
7375;SDS011;3728;42.266;24.944;2024-03-22T12:13:41;2.93;;;2.43;;
7375;SDS011;3728;42.266;24.944;2024-03-22T12:16:07;3.03;;;2.00;;
7375;SDS011;3728;42.266;24.944;2024-03-22T12:18:34;1.70;;;1.60;;
7375;SDS011;3728;42.266;24.944;2024-03-22T12:21:00;19.40;;;3.33;;
7375;SDS011;3728;42.266;24.944;2024-03-22T12:23:27;2.57;;;1.97;;
7375;SDS011;3728;42.266;24.944;2024-03-22T12:25:53;3.03;;;1.83;;
7375;SDS011;3728;42.266;24.944;2024-03-22T12:28:21;5.67;;;2.13;;
7375;SDS011;3728;42.266;24.944;2024-03-22T12:30:49;5.07;;;2.40;;
7375;SDS011;3728;42.266;24.944;2024-03-22T12:33:15;5.40;;;2.13;;
7375;SDS011;3728;42.266;24.944;2024-03-22T12:35:42;2.30;;;2.10;;
7375;SDS011;3728;42.266;24.944;2024-03-22T12:38:09;1.80;;;1.40;;
7375;SDS011;3728;42.266;24.944;2024-03-22T12:40:37;2.10;;;1.90;;
7375;SDS011;3728;42.266;24.944;2024-03-22T12:43:04;3.30;;;2.07;;
7375;SDS011;3728;42.266;24.944;2024-03-22T12:45:31;2.70;;;2.10;;
7375;SDS011;3728;42.266;24.944;2024-03-22T12:47:58;2.30;;;2.10;;
7375;SDS011;3728;42.266;24.944;2024-03-22T12:50:24;2.27;;;2.00;;
7375;SDS011;3728;42.266;24.944;2024-03-22T12:52:52;2.43;;;1.87;;
7375;SDS011;3728;42.266;24.944;2024-03-22T12:55:19;3.07;;;1.80;;
7375;SDS011;3728;42.266;24.944;2024-03-22T12:57:45;3.77;;;2.10;;
7375;SDS011;3728;42.266;24.944;2024-03-22T13:00:12;2.63;;;2.17;;
7375;SDS011;3728;42.266;24.944;2024-03-22T13:02:44;2.70;;;2.50;;
7375;SDS011;3728;42.266;24.944;2024-03-22T13:05:11;2.10;;;2.00;;
7375;SDS011;3728;42.266;24.944;2024-03-22T13:07:38;3.70;;;2.30;;
7375;SDS011;3728;42.266;24.944;2024-03-22T13:10:05;3.40;;;2.17;;
7375;SDS011;3728;42.266;24.944;2024-03-22T13:12:32;2.60;;;2.40;;
7375;SDS011;3728;42.266;24.944;2024-03-22T13:15:00;2.33;;;1.97;;
7375;SDS011;3728;42.266;24.944;2024-03-22T13:17:27;5.28;;;2.28;;
7375;SDS011;3728;42.266;24.944;2024-03-22T13:19:53;3.78;;;2.20;;
7375;SDS011;3728;42.266;24.944;2024-03-22T13:22:21;1.80;;;1.70;;
7375;SDS011;3728;42.266;24.944;2024-03-22T13:24:47;1.80;;;1.70;;
7375;SDS011;3728;42.266;24.944;2024-03-22T13:27:16;2.60;;;2.40;;
7375;SDS011;3728;42.266;24.944;2024-03-22T13:29:43;7.80;;;2.72;;
7375;SDS011;3728;42.266;24.944;2024-03-22T13:32:09;2.20;;;2.00;;
7375;SDS011;3728;42.266;24.944;2024-03-22T13:34:35;2.60;;;1.75;;
7375;SDS011;3728;42.266;24.944;2024-03-22T13:37:03;2.42;;;2.22;;
7375;SDS011;3728;42.266;24.944;2024-03-22T13:39:32;2.42;;;1.92;;
7375;SDS011;3728;42.266;24.944;2024-03-22T13:41:58;2.50;;;1.70;;
7375;SDS011;3728;42.266;24.944;2024-03-22T13:44:24;2.47;;;1.98;;
7375;SDS011;3728;42.266;24.944;2024-03-22T13:46:51;2.22;;;2.03;;
7375;SDS011;3728;42.266;24.944;2024-03-22T13:49:19;7.03;;;1.92;;
7375;SDS011;3728;42.266;24.944;2024-03-22T13:51:48;2.10;;;1.90;;
7375;SDS011;3728;42.266;24.944;2024-03-22T13:54:15;1.95;;;1.70;;
7375;SDS011;3728;42.266;24.944;2024-03-22T13:56:42;5.70;;;2.60;;
7375;SDS011;3728;42.266;24.944;2024-03-22T13:59:09;2.13;;;1.77;;
7375;SDS011;3728;42.266;24.944;2024-03-22T14:01:35;1.60;;;1.50;;
7375;SDS011;3728;42.266;24.944;2024-03-22T14:04:02;2.20;;;2.00;;
7375;SDS011;3728;42.266;24.944;2024-03-22T14:06:30;4.55;;;2.00;;
7375;SDS011;3728;42.266;24.944;2024-03-22T14:08:57;3.47;;;1.70;;
7375;SDS011;3728;42.266;24.944;2024-03-22T14:11:27;2.03;;;1.83;;
7375;SDS011;3728;42.266;24.944;2024-03-22T14:13:56;3.17;;;1.75;;
7375;SDS011;3728;42.266;24.944;2024-03-22T14:16:25;2.15;;;1.70;;
7375;SDS011;3728;42.266;24.944;2024-03-22T14:18:52;2.15;;;1.60;;
7375;SDS011;3728;42.266;24.944;2024-03-22T14:21:19;1.52;;;1.42;;
7375;SDS011;3728;42.266;24.944;2024-03-22T14:24:10;7.90;;;2.13;;
7375;SDS011;3728;42.266;24.944;2024-03-22T14:26:57;1.83;;;1.60;;
7375;SDS011;3728;42.266;24.944;2024-03-22T14:29:24;1.77;;;1.67;;
7375;SDS011;3728;42.266;24.944;2024-03-22T14:31:51;1.90;;;1.58;;
7375;SDS011;3728;42.266;24.944;2024-03-22T14:34:17;1.67;;;1.55;;
7375;SDS011;3728;42.266;24.944;2024-03-22T14:36:44;2.38;;;1.67;;
7375;SDS011;3728;42.266;24.944;2024-03-22T14:39:33;1.55;;;1.40;;
7375;SDS011;3728;42.266;24.944;2024-03-22T14:42:00;2.00;;;1.80;;
7375;SDS011;3728;42.266;24.944;2024-03-22T14:44:26;2.92;;;1.60;;
7375;SDS011;3728;42.266;24.944;2024-03-22T14:46:53;1.83;;;1.67;;
7375;SDS011;3728;42.266;24.944;2024-03-22T14:49:20;2.95;;;1.73;;
7375;SDS011;3728;42.266;24.944;2024-03-22T14:51:46;5.53;;;1.95;;